createdAt,value
2022-08-31T05:02:20.399Z,64.00
2022-08-31T05:07:26.549Z,64.20
2022-08-31T05:12:32.148Z,64.60
2022-08-31T05:17:37.142Z,65.10
2022-08-31T05:22:41.374Z,65.50
2022-08-31T05:27:45.010Z,65.60
2022-08-31T05:32:50.190Z,65.80
2022-08-31T05:37:54.204Z,65.90
2022-08-31T05:42:59.515Z,65.90
2022-08-31T05:48:04.990Z,66.10
2022-08-31T05:53:10.607Z,66.10
2022-08-31T05:58:14.309Z,66.10
2022-08-31T06:03:19.368Z,66.10
2022-08-31T06:08:27.561Z,66.30
2022-08-31T06:13:32.289Z,66.60
2022-08-31T06:18:38.710Z,66.60
2022-08-31T06:23:43.535Z,66.50
2022-08-31T06:28:48.777Z,66.50
2022-08-31T06:33:55.649Z,66.50
2022-08-31T06:39:04.263Z,66.50
2022-08-31T06:44:10.918Z,66.30
2022-08-31T06:49:16.643Z,66.30
2022-08-31T06:54:29.535Z,66.30
2022-08-31T06:59:39.654Z,66.00
2022-08-31T07:04:48.726Z,65.90
2022-08-31T07:09:52.466Z,65.80
2022-08-31T07:14:56.411Z,65.60
2022-08-31T07:20:01.848Z,65.40
2022-08-31T07:25:08.050Z,65.40
2022-08-31T07:30:13.607Z,65.30
2022-08-31T07:35:20.314Z,65.00
2022-08-31T07:40:42.685Z,64.90
2022-08-31T07:45:46.411Z,64.70
2022-08-31T07:50:54.355Z,64.10
2022-08-31T07:56:01.869Z,63.90
2022-08-31T08:01:06.357Z,63.60
2022-08-31T08:06:14.945Z,63.30
2022-08-31T08:11:21.189Z,63.20
2022-08-31T08:16:28.043Z,62.80
2022-08-31T08:21:33.342Z,62.40
2022-08-31T08:26:37.899Z,61.90
2022-08-31T08:31:43.749Z,61.50
2022-08-31T08:36:49.752Z,61.00
2022-08-31T08:41:57.484Z,60.60
2022-08-31T08:47:05.116Z,60.00
2022-08-31T08:52:15.828Z,59.70
2022-08-31T08:57:24.833Z,59.30
2022-08-31T09:02:36.153Z,58.60
2022-08-31T09:08:01.565Z,57.80
2022-08-31T09:13:17.015Z,56.80
2022-08-31T09:18:32.911Z,55.70
2022-08-31T09:23:44.336Z,54.90
2022-08-31T09:28:49.588Z,54.00
2022-08-31T09:33:53.108Z,53.00
2022-08-31T09:39:14.061Z,52.40
2022-08-31T09:44:23.861Z,51.70
2022-08-31T09:49:30.142Z,50.90
2022-08-31T09:54:52.800Z,50.60
2022-08-31T09:59:56.359Z,50.50
2022-08-31T10:05:03.856Z,50.50
2022-08-31T10:10:16.022Z,50.40
2022-08-31T10:15:41.229Z,50.60
2022-08-31T10:20:51.712Z,50.70
2022-08-31T10:26:02.370Z,50.80
2022-08-31T10:31:10.733Z,51.00
2022-08-31T10:36:16.325Z,51.00
2022-08-31T10:41:28.964Z,50.50
2022-08-31T10:46:34.630Z,49.30
2022-08-31T10:51:46.271Z,48.60
2022-08-31T10:57:00.737Z,48.30
2022-08-31T11:02:34.318Z,48.00
2022-08-31T11:07:48.337Z,47.60
2022-08-31T11:12:58.337Z,47.20
2022-08-31T11:18:44.446Z,47.00
2022-08-31T11:24:14.923Z,46.40
2022-08-31T11:29:37.063Z,45.60
2022-08-31T11:34:50.873Z,45.20
2022-08-31T11:39:54.478Z,45.00
2022-08-31T11:45:03.231Z,44.20
2022-08-31T11:50:30.740Z,44.00
2022-08-31T11:55:48.306Z,43.70
2022-08-31T12:00:58.584Z,42.70
2022-08-31T12:06:02.469Z,42.50
2022-08-31T12:11:12.378Z,42.30
2022-08-31T12:16:30.081Z,42.90
2022-08-31T12:22:00.468Z,43.10
2022-08-31T12:27:19.599Z,42.50
2022-08-31T12:32:36.279Z,41.80
2022-08-31T12:37:41.130Z,41.70
2022-08-31T12:42:58.964Z,42.10
2022-08-31T12:48:10.682Z,42.50
2022-08-31T12:53:40.860Z,43.00
2022-08-31T12:59:03.158Z,42.80
2022-08-31T13:04:08.287Z,42.00
2022-08-31T13:09:25.467Z,41.80
2022-08-31T13:14:31.774Z,41.10
2022-08-31T13:19:37.366Z,40.80
2022-08-31T13:24:53.818Z,40.40
2022-08-31T13:30:12.174Z,40.00
2022-08-31T13:35:20.109Z,39.90
2022-08-31T13:40:26.535Z,40.20
2022-08-31T13:45:32.719Z,40.00
2022-08-31T13:50:52.687Z,39.60
2022-08-31T13:55:56.650Z,39.80
2022-08-31T14:01:19.530Z,39.90
2022-08-31T14:06:27.440Z,40.00
2022-08-31T14:11:31.721Z,40.50
2022-08-31T14:16:38.735Z,40.90
2022-08-31T14:21:43.738Z,41.10
2022-08-31T14:26:47.272Z,41.10
2022-08-31T14:31:52.969Z,41.30
2022-08-31T14:37:02.297Z,41.30
2022-08-31T14:42:09.243Z,41.10
2022-08-31T14:47:12.902Z,41.20
2022-08-31T14:52:18.305Z,41.40
2022-08-31T14:57:26.628Z,41.40
2022-08-31T15:02:33.852Z,41.50
2022-08-31T15:07:40.365Z,41.70
2022-08-31T15:12:45.100Z,42.00
2022-08-31T15:17:50.608Z,42.40
2022-08-31T15:22:55.563Z,42.90
2022-08-31T15:27:59.587Z,43.60
2022-08-31T15:33:03.164Z,43.10
2022-08-31T15:38:10.170Z,43.30
2022-08-31T15:43:15.849Z,43.40
2022-08-31T15:48:37.049Z,43.40
2022-08-31T15:53:42.727Z,43.50
2022-08-31T15:58:50.654Z,43.60
2022-08-31T16:03:56.927Z,43.60
2022-08-31T16:09:02.755Z,43.60
2022-08-31T16:14:10.892Z,43.70
2022-08-31T16:19:34.094Z,43.80
2022-08-31T16:24:39.784Z,43.90
2022-08-31T16:29:43.846Z,44.00
2022-08-31T16:34:47.425Z,44.20
2022-08-31T16:39:52.569Z,44.30
2022-08-31T16:45:01.251Z,44.40
2022-08-31T16:50:08.832Z,44.40
2022-08-31T16:55:17.097Z,44.60
2022-08-31T17:00:20.927Z,44.80
2022-08-31T17:05:36.648Z,45.00
2022-08-31T17:10:41.811Z,45.20
2022-08-31T17:15:45.393Z,45.40
2022-08-31T17:20:48.910Z,45.60
2022-08-31T17:25:53.820Z,45.80
2022-08-31T17:31:01.244Z,46.00
2022-08-31T17:36:08.458Z,46.30
2022-08-31T17:41:13.393Z,46.50
2022-08-31T17:46:17.083Z,46.80
2022-08-31T17:51:26.487Z,47.10
2022-08-31T17:56:36.937Z,47.50
2022-08-31T18:01:40.667Z,47.90
2022-08-31T18:06:45.064Z,48.30
2022-08-31T18:11:50.093Z,49.00
2022-08-31T18:16:55.516Z,49.90
2022-08-31T18:21:59.587Z,51.20
2022-08-31T18:27:06.968Z,52.60
2022-08-31T18:32:10.857Z,54.30
2022-08-31T18:37:16.246Z,55.40
2022-08-31T18:42:39.452Z,56.30
2022-08-31T18:47:43.413Z,57.10
2022-08-31T18:52:48.432Z,57.70
2022-08-31T18:57:54.190Z,58.50
2022-08-31T19:02:57.737Z,59.80
2022-08-31T19:08:01.562Z,60.60
2022-08-31T19:13:07.660Z,61.10
2022-08-31T19:18:11.568Z,61.50
2022-08-31T19:23:20.049Z,62.30
2022-08-31T19:28:25.462Z,63.00
2022-08-31T19:33:29.116Z,63.40
2022-08-31T19:38:36.950Z,63.70
2022-08-31T19:43:47.034Z,64.00
2022-08-31T19:48:59.766Z,64.40
2022-08-31T19:54:05.527Z,64.80
2022-08-31T19:59:18.462Z,65.20
2022-08-31T20:04:26.856Z,66.20
2022-08-31T20:09:30.469Z,66.70
2022-08-31T20:14:35.921Z,67.00
2022-08-31T20:19:39.805Z,67.80
2022-08-31T20:24:45.105Z,68.40
2022-08-31T20:29:50.201Z,68.40
2022-08-31T20:34:56.982Z,68.60
2022-08-31T20:40:00.628Z,68.90
2022-08-31T20:45:06.343Z,69.30
2022-08-31T20:50:11.543Z,69.80
2022-08-31T20:55:15.173Z,70.20
2022-08-31T21:00:20.253Z,70.50
2022-08-31T21:05:40.078Z,70.40
2022-08-31T21:10:43.825Z,71.50
2022-08-31T21:15:48.812Z,71.20
2022-08-31T21:20:52.414Z,71.80
2022-08-31T21:25:57.339Z,72.30
2022-08-31T21:31:15.861Z,72.60
2022-08-31T21:36:32.836Z,72.90
2022-08-31T21:41:37.785Z,73.30
2022-08-31T21:46:46.969Z,73.70
2022-08-31T21:51:55.179Z,74.20
2022-08-31T21:57:00.986Z,74.80
2022-08-31T22:02:11.095Z,75.40
2022-08-31T22:07:15.426Z,75.70
2022-08-31T22:12:19.357Z,75.30
2022-08-31T22:17:37.160Z,75.00
2022-08-31T22:22:48.408Z,74.70
2022-08-31T22:27:52.206Z,74.80
